Latest Weather Observations for Williamson

IDQ60801

Issued at 10:32 pm EST Monday 16 January 2017 (issued every 30 minutes, with the page automatically refreshed every 10 minutes)

About weather observations | Map of weather stations | Latest weather observations for QLD | Other Formats
Station Details ID: 033195 Name: WILLIAMSON Lat: -22.47 Lon: 150.18 Height: 27.6 m
Data from the previous 72 hours. | See also: Recent months at Williamson
Date/Time
EST
Temp
°C
App
Temp
°C
Dew
Point
°C
Rel
Hum
%
Delta-T
°C
Wind Press
QNH
hPa
Press
MSL
hPa
Rain since
9am
mm
Dir  Spd
km/h
Gust
km/h
Spd
kts
Gust
kts
16/10:00pm 25.9 29.2 22.6 82 2.2 E 9 15 5 8 1014.0 1013.8 13.6
16/09:30pm 26.1 29.7 22.4 80 2.5 E 7 11 4 6 1013.9 1013.7 13.6
16/09:00pm 26.5 28.8 22.1 77 3.0 E 13 19 7 10 1013.7 1013.5 13.6
16/08:30pm 26.7 29.5 22.3 77 3.0 E 11 22 6 12 1013.3 1013.1 13.6
16/08:00pm 27.0 30.4 22.0 74 3.4 E 7 15 4 8 1013.3 1013.1 13.6
16/07:30pm 27.5 29.5 20.8 67 4.4 E 11 19 6 10 1013.1 1012.9 13.6
16/07:00pm 27.5 30.3 21.5 70 4.0 E 9 13 5 7 1012.8 1012.6 13.6
16/06:30pm 27.9 29.8 21.4 67 4.3 ENE 13 24 7 13 1012.6 1012.4 13.6
16/06:00pm 28.2 30.7 22.4 71 3.9 NE 13 28 7 15 1012.1 1011.9 13.6
16/05:30pm 28.4 30.6 22.6 71 3.9 NE 15 24 8 13 1011.5 1011.3 13.6
16/05:00pm 28.9 31.5 23.3 72 3.8 NE 15 28 8 15 1011.2 1011.0 13.6
16/04:30pm 29.0 31.2 23.2 71 4.0 ENE 17 26 9 14 1010.9 1010.7 13.6
16/04:00pm 29.6 31.3 23.1 68 4.5 ENE 19 30 10 16 1010.9 1010.7 13.6
16/03:30pm 29.3 31.0 23.0 69 4.3 ENE 19 32 10 17 1010.9 1010.7 13.6
16/03:00pm 29.3 30.2 21.5 63 5.2 ENE 19 32 10 17 1011.1 1010.9 13.6
16/02:30pm 28.9 30.1 22.2 67 4.5 ENE 19 28 10 15 1011.2 1011.0 13.6
16/02:00pm 28.7 30.0 22.4 68 4.3 ENE 19 30 10 16 1011.2 1011.0 13.6
16/01:30pm 28.5 30.8 22.7 71 3.9 NE 15 24 8 13 1011.3 1011.1 13.6
16/01:00pm 28.4 31.0 24.0 77 3.0 NE 17 26 9 14 1011.4 1011.2 13.6
16/12:30pm 28.3 30.6 23.4 75 3.4 NE 17 26 9 14 1011.6 1011.4 13.6
16/12:00pm 29.0 31.7 23.4 72 3.9 NE 15 24 8 13 1011.5 1011.3 13.6
16/11:30am 27.9 31.1 23.7 78 2.9 NE 13 22 7 12 1011.6 1011.4 13.4
16/11:00am 25.8 31.4 25.5 98 0.2 N 6 9 3 5 1012.0 1011.8 13.4
16/10:30am 25.7 28.6 23.9 90 1.2 ESE 15 20 8 11 1012.2 1012.0 2.4
16/10:00am 29.7 32.4 22.2 64 5.1 NE 11 19 6 10 1011.8 1011.6 0.0
16/09:30am 30.1 32.9 22.3 63 5.3 NE 11 17 6 9 1011.6 1011.4 0.0
16/09:00am 29.1 32.0 23.1 70 4.1 N 13 19 7 10 1011.6 1011.4 2.0
16/08:30am 29.6 32.8 23.1 68 4.5 NNE 11 20 6 11 1011.4 1011.2 2.0
16/08:00am 28.0 32.6 24.2 80 2.6 NE 7 13 4 7 1011.2 1011.0 2.0
16/07:30am 27.6 32.4 24.4 83 2.2 NE 7 11 4 6 1011.1 1010.9 2.0
16/07:00am 27.8 34.0 24.6 83 2.2 CALM 0 0 0 0 1010.8 1010.6 2.0
16/06:30am 26.9 34.3 26.4 97 0.4 CALM 0 0 0 0 1010.4 1010.2 2.0
16/06:00am 25.2 31.7 25.0 99 0.1 CALM 0 0 0 0 1010.3 1010.1 2.0
16/05:30am 24.9 31.1 24.6 98 0.2 CALM 0 0 0 0 1010.1 1009.9 2.0
16/05:00am 25.2 31.6 24.9 98 0.2 CALM 0 0 0 0 1009.7 1009.5 2.0
16/04:30am 25.1 31.4 24.8 98 0.2 CALM 0 0 0 0 1009.4 1009.2 2.0
16/04:00am 25.3 31.8 25.0 98 0.2 CALM 0 0 0 0 1009.0 1008.8 2.0
16/03:30am 25.1 31.4 24.8 98 0.2 CALM 0 0 0 0 1008.7 1008.5 2.0
16/03:00am 25.6 31.1 24.6 94 0.7 NE 4 9 2 5 1008.6 1008.4 2.0
16/02:30am 26.4 33.2 26.1 98 0.2 NNE 2 6 1 3 1008.7 1008.5 1.8
16/02:00am 26.5 32.6 26.2 98 0.2 NE 6 9 3 5 1009.0 1008.8 1.8
16/01:30am 26.7 34.1 26.4 98 0.2 CALM 0 6 0 3 1009.3 1009.1 1.8
16/01:00am 26.6 32.2 26.3 98 0.2 N 9 17 5 9 1009.5 1009.3 1.6
16/12:30am 26.8 33.1 25.9 95 0.6 NNE 4 7 2 4 1009.5 1009.3 0.0
16/12:00am 26.9 32.7 26.0 95 0.6 NE 7 13 4 7 1009.7 1009.5 0.0
 
Date/Time
EST
Temp
°C
App
Temp
°C
Dew
Point
°C
Rel
Hum
%
Delta-T
°C
Wind Press
QNH
hPa
Press
MSL
hPa
Rain since
9am
mm
Dir  Spd
km/h
Gust
km/h
Spd
kts
Gust
kts
15/11:30pm 26.9 32.7 25.7 93 0.8 ENE 6 9 3 5 1010.0 1009.8 0.0
15/11:00pm 27.2 32.8 25.4 90 1.3 ENE 6 11 3 6 1010.1 1009.9 0.0
15/10:30pm 27.4 33.0 25.8 91 1.1 NE 7 11 4 6 1010.2 1010.0 0.0
15/10:00pm 27.4 33.2 25.8 91 1.1 NE 6 9 3 5 1010.3 1010.1 0.0
15/09:30pm 27.6 32.9 25.8 90 1.3 NE 9 20 5 11 1009.9 1009.7 0.0
15/09:00pm 27.5 33.1 25.7 90 1.3 NE 7 11 4 6 1009.6 1009.4 0.0
15/08:30pm 27.7 33.0 25.3 87 1.7 NE 7 9 4 5 1009.3 1009.1 0.0
15/08:00pm 27.8 33.0 24.8 84 2.1 NNE 6 9 3 5 1009.2 1009.0 0.0
15/07:30pm 27.9 31.8 24.3 81 2.5 NE 11 19 6 10 1008.5 1008.3 0.0
15/07:00pm 28.1 32.3 24.1 79 2.8 NE 9 17 5 9 1007.8 1007.6 0.0
15/06:30pm 28.5 32.3 23.4 74 3.5 NE 9 17 5 9 1007.3 1007.1 0.0
15/06:00pm 28.8 31.6 23.0 71 4.0 NNE 13 20 7 11 1006.9 1006.7 0.0
15/05:30pm 29.4 32.9 22.9 68 4.4 NNE 9 15 5 8 1006.6 1006.4 0.0
15/05:00pm 29.7 32.2 22.4 65 5.0 NE 13 22 7 12 1006.0 1005.8 0.0
15/04:30pm 30.3 33.2 22.5 63 5.3 NNE 11 19 6 10 1005.7 1005.5 0.0
15/04:00pm 31.6 34.6 22.6 59 6.2 NNE 11 20 6 11 1005.8 1005.6 0.0
15/03:30pm 32.7 34.7 22.2 54 7.2 NNE 15 22 8 12 1005.7 1005.5 0.0
15/03:00pm 32.2 33.4 21.4 53 7.3 NE 17 24 9 13 1006.0 1005.8 0.0
15/02:30pm 32.1 33.2 21.3 53 7.3 NE 17 26 9 14 1006.5 1006.3 0.0
15/02:00pm 32.9 34.6 21.7 51 7.6 NE 15 20 8 11 1006.7 1006.5 0.0
15/01:30pm 33.0 35.0 21.5 50 7.8 NNE 13 19 7 10 1007.1 1006.9 0.0
15/01:00pm 33.2 35.6 22.3 52 7.5 NE 13 20 7 11 1007.5 1007.3 0.0
15/12:30pm 32.3 34.8 21.8 54 7.1 NE 11 19 6 10 1007.9 1007.7 0.0
15/12:00pm 33.1 35.8 22.8 54 7.1 NE 13 24 7 13 1008.0 1007.8 0.0
15/11:30am 32.3 35.1 23.0 58 6.4 NNE 13 19 7 10 1008.2 1008.0 0.0
15/11:00am 31.8 34.4 23.3 60 5.9 NNE 15 22 8 12 1008.2 1008.0 0.0
15/10:30am 31.5 34.6 22.8 60 6.0 NE 11 19 6 10 1008.3 1008.1 0.0
15/10:00am 31.6 35.3 22.6 59 6.2 WNW 7 15 4 8 1008.2 1008.0 0.0
15/09:30am 30.7 34.5 23.4 65 5.0 WNW 9 17 5 9 1008.3 1008.1 0.0
15/09:00am 29.7 33.4 23.2 68 4.5 NW 9 15 5 8 1008.5 1008.3 0.0
15/08:30am 28.5 33.4 24.7 80 2.7 NNW 7 11 4 6 1008.8 1008.6 0.0
15/08:00am 27.4 33.3 26.2 93 0.9 N 7 11 4 6 1008.9 1008.7 0.0
15/07:30am 26.6 33.5 26.3 98 0.2 N 2 7 1 4 1008.9 1008.7 0.0
15/07:00am 26.0 33.0 25.8 99 0.1 CALM 0 0 0 0 1008.8 1008.6 0.0
15/06:30am 25.3 31.8 25.1 99 0.1 CALM 0 0 0 0 1008.6 1008.4 0.0
15/06:00am 24.8 31.0 24.6 99 0.1 CALM 0 6 0 3 1008.1 1007.9 0.0
15/05:30am 24.4 30.4 24.2 99 0.1 CALM 0 0 0 0 1007.7 1007.5 0.0
15/05:00am 24.3 30.2 24.1 99 0.1 CALM 0 0 0 0 1007.2 1007.0 0.0
15/04:30am 24.3 30.2 24.1 99 0.1 CALM 0 0 0 0 1007.2 1007.0 0.0
15/04:00am 24.4 30.4 24.2 99 0.1 CALM 0 0 0 0 1007.0 1006.8 0.0
15/03:30am 24.5 30.5 24.3 99 0.1 CALM 0 0 0 0 1007.2 1007.0 0.0
15/03:00am 24.6 30.7 24.4 99 0.1 CALM 0 0 0 0 1007.1 1006.9 0.0
15/02:30am 24.8 31.0 24.6 99 0.1 CALM 0 0 0 0 1007.3 1007.1 0.0
15/02:00am 25.0 31.3 24.7 98 0.2 CALM 0 0 0 0 1007.3 1007.1 0.0
15/01:30am 25.1 31.4 24.8 98 0.2 CALM 0 0 0 0 1007.3 1007.1 0.0
15/01:00am 25.3 31.8 25.0 98 0.2 CALM 0 0 0 0 1007.9 1007.7 0.0
15/12:30am 25.5 32.1 25.2 98 0.2 CALM 0 0 0 0 1008.3 1008.1 0.0
15/12:00am 25.7 31.8 25.0 96 0.5 N 2 6 1 3 1008.3 1008.1 0.0
 
Date/Time
EST
Temp
°C
App
Temp
°C
Dew
Point
°C
Rel
Hum
%
Delta-T
°C
Wind Press
QNH
hPa
Press
MSL
hPa
Rain since
9am
mm
Dir  Spd
km/h
Gust
km/h
Spd
kts
Gust
kts
14/11:30pm 25.9 31.6 25.0 95 0.6 NNW 4 7 2 4 1008.5 1008.3 0.0
14/11:00pm 26.2 31.7 25.3 95 0.6 N 6 7 3 4 1008.2 1008.0 0.0
14/10:30pm 26.6 32.0 25.2 92 1.0 N 6 9 3 5 1008.4 1008.2 0.0
14/10:00pm 26.7 31.4 24.9 90 1.3 N 9 13 5 7 1008.3 1008.1 0.0
14/09:30pm 26.7 32.2 24.7 89 1.4 NNW 4 7 2 4 1008.1 1007.9 0.0
14/09:00pm 26.5 32.1 24.9 91 1.1 NE 4 7 2 4 1007.5 1007.3 0.0
14/08:30pm 26.9 32.9 24.2 85 1.9 CALM 0 0 0 0 1007.2 1007.0 0.0
14/08:00pm 27.4 33.4 24.3 83 2.2 CALM 0 2 0 1 1007.1 1006.9 0.0
14/07:30pm 27.7 32.7 23.9 80 2.6 ENE 4 7 2 4 1007.0 1006.8 0.0
14/07:00pm 28.2 33.4 23.6 76 3.2 N 2 6 1 3 1006.8 1006.6 0.0
14/06:30pm 29.1 33.2 23.3 71 4.0 NNW 7 13 4 7 1006.3 1006.1 0.0
14/06:00pm 29.5 32.7 23.0 68 4.5 NNW 11 17 6 9 1006.3 1006.1 0.0
14/05:30pm 29.6 31.8 22.6 66 4.8 NNW 15 22 8 12 1006.4 1006.2 0.0
14/05:00pm 29.9 32.4 23.8 70 4.2 NW 17 32 9 17 1006.7 1006.5 0.0
14/04:30pm 30.7 33.0 23.4 65 5.0 NNW 17 28 9 15 1006.6 1006.4 0.0
14/04:00pm 31.1 33.6 24.7 68 4.5 NNE 20 32 11 17 1006.6 1006.4 0.0
14/03:30pm 31.5 34.5 24.6 67 4.8 N 17 28 9 15 1006.6 1006.4 0.0
14/03:00pm 34.2 38.4 25.3 59 6.3 N 13 20 7 11 1006.5 1006.3 0.0
14/02:30pm 34.6 37.2 22.0 48 8.6 W 11 20 6 11 1006.6 1006.4 0.0
14/02:00pm 34.3 35.4 22.0 48 8.4 WNW 19 28 10 15 1007.0 1006.8 0.0
14/01:30pm 34.2 35.1 21.6 47 8.6 WNW 19 26 10 14 1007.4 1007.2 0.0
14/01:00pm 34.3 35.6 22.4 50 8.2 WNW 19 30 10 16 1008.0 1007.8 0.0
14/12:30pm 33.8 35.2 21.9 49 8.1 NW 17 28 9 15 1008.3 1008.1 0.0
14/12:00pm 33.7 35.1 21.8 49 8.1 NW 17 28 9 15 1008.9 1008.7 0.0
14/11:30am 33.2 34.0 21.4 50 8.0 WNW 19 30 10 16 1009.4 1009.2 0.0
14/11:00am 32.0 33.4 21.8 54 6.9 WNW 17 26 9 14 1009.7 1009.5 0.0
14/10:30am 31.9 34.3 22.3 56 6.6 WNW 13 20 7 11 1010.2 1010.0 0.0
14/10:00am 31.0 33.9 23.1 63 5.4 WSW 13 17 7 9 1010.3 1010.1 0.0
14/09:30am 30.1 33.7 23.8 69 4.4 WNW 11 19 6 10 1010.2 1010.0 0.0
14/09:00am 29.2 34.4 23.6 72 3.9 S 2 6 1 3 1010.4 1010.2 2.4
14/08:30am 28.3 33.4 24.1 78 2.9 SSW 4 7 2 4 1010.7 1010.5 2.4
14/08:00am 27.2 31.8 24.1 83 2.1 SSE 7 11 4 6 1010.8 1010.6 2.4
14/07:30am 26.0 30.4 24.4 91 1.1 SSW 9 13 5 7 1010.6 1010.4 2.4
14/07:00am 27.2 32.7 26.1 94 0.8 WSW 9 11 5 6 1010.5 1010.3 2.4
14/06:30am 27.0 34.1 26.0 94 0.7 CALM 0 6 0 3 1010.1 1009.9 2.4
14/06:00am 26.1 33.1 25.8 98 0.2 CALM 0 6 0 3 1009.5 1009.3 2.4
14/05:30am 25.6 30.5 25.3 98 0.2 ENE 9 13 5 7 1008.8 1008.6 2.4
14/05:00am 24.8 30.8 24.3 97 0.3 CALM 0 7 0 4 1008.8 1008.6 2.4
14/04:30am 24.7 29.4 24.0 96 0.5 ESE 6 9 3 5 1008.5 1008.3 2.4
14/04:00am 24.8 29.8 23.9 95 0.6 E 4 9 2 5 1008.3 1008.1 2.4
14/03:30am 24.9 30.0 24.0 95 0.6 WSW 4 7 2 4 1008.2 1008.0 2.4
14/03:00am 24.7 29.6 23.7 94 0.7 ENE 4 9 2 5 1007.9 1007.7 2.4
14/02:30am 24.9 30.2 23.7 93 0.8 NNW 2 7 1 4 1008.2 1008.0 2.4
14/02:00am 25.3 28.9 23.0 87 1.6 ESE 9 17 5 9 1009.0 1008.8 2.4
14/01:30am 24.7 28.8 22.9 90 1.2 NNW 6 11 3 6 1008.6 1008.4 2.4
14/01:00am 25.2 27.6 22.9 87 1.6 W 15 26 8 14 1009.2 1009.0 2.2
14/12:30am 26.5 30.5 25.6 95 0.6 WSW 15 24 8 13 1010.1 1009.9 1.8
14/12:00am 26.8 32.1 26.5 98 0.2 SW 11 17 6 9 1011.0 1010.8 1.6
 
Date/Time
EST
Temp
°C
App
Temp
°C
Dew
Point
°C
Rel
Hum
%
Delta-T
°C
Wind Press
QNH
hPa
Press
MSL
hPa
Rain since
9am
mm
Dir  Spd
km/h
Gust
km/h
Spd
kts
Gust
kts
13/11:30pm 26.9 32.7 26.6 98 0.2 SW 9 13 5 7 1011.2 1011.0 1.4
13/11:00pm 27.2 34.1 26.3 95 0.6 N 2 7 1 4 1011.1 1010.9 0.6

Other Formats:

Comma delimited format used in spreadsheet applications
http://www.bom.gov.au/fwo/IDQ60801/IDQ60801.95370.axf

JavaScript Object Notation format (JSON) in row-major order
http://www.bom.gov.au/fwo/IDQ60801/IDQ60801.95370.json